Time;durP1;ratioP1;P1;durP2;ratioP2;P2;SDS_P1;SDS_P2;PMS_P1;PMS_P2;Temp;Humidity;BMP_temperature;BMP_pressure;BME280_temperature;BME280_humidity;BME280_pressure;Samples;Min_cycle;Max_cycle;Signal;HPM_P1;HPM_P2
2022/01/18 00:00:10;;;;;;;;;;;0.20;99.90;;;;;;6227974;23;19926;-70
2022/01/18 00:02:38;;;;;;;;;;;0.10;99.90;;;;;;6231024;23;19900;-69
2022/01/18 00:05:05;;;;;;;;;;;0.10;99.90;;;;;;6233139;23;19899;-70
2022/01/18 00:07:31;;;;;;;;;;;0.10;99.90;;;;;;6232209;23;19956;-71
2022/01/18 00:09:56;;;;;;;;;;;0.10;99.90;;;;;;6230404;23;19927;-70
2022/01/18 00:18:05;;;;;;;;;;;0.00;99.90;;;;;;6229585;23;19904;-70
2022/01/18 00:20:42;;;;;;;;;;;-0.10;99.90;;;;;;6227978;23;19899;-70
2022/01/18 00:23:09;;;;;;;;;;;0.00;99.90;;;;;;6229101;23;19910;-70
2022/01/18 00:25:37;;;;;;;;;;;0.00;99.90;;;;;;6229109;23;19990;-69
2022/01/18 00:28:05;;;;;;;;;;;0.10;99.90;;;;;;6227871;23;19904;-70
2022/01/18 00:35:51;;;;;;;;;;;0.00;99.90;;;;;;6230411;23;19936;-71
2022/01/18 00:39:01;;;;;;;;;;;0.00;99.90;;;;;;6229370;23;19942;-70
2022/01/18 00:41:02;;;;;;;;;;;0.00;99.90;;;;;;6212780;23;19907;-70
2022/01/18 00:43:28;;;;;;;;;;;0.10;99.90;;;;;;6229364;23;19900;-70
2022/01/18 00:45:53;;;;;;;;;;;0.20;99.90;;;;;;6228973;23;19911;-70
2022/01/18 00:48:19;;;;;;;;;;;0.00;99.90;;;;;;6228747;23;20179;-70
2022/01/18 00:50:45;;;;;;;;;;;0.00;99.90;;;;;;6228690;23;19914;-70
2022/01/18 00:53:14;;;;;;;;;;;0.00;99.90;;;;;;6226424;23;19908;-71
2022/01/18 00:56:03;;;;;;;;;;;0.00;99.90;;;;;;6231876;23;19915;-70
2022/01/18 00:58:29;;;;;;;;;;;-0.10;99.90;;;;;;6233387;23;19914;-71
2022/01/18 01:00:54;;;;;;;;;;;-0.20;99.90;;;;;;6232539;23;19900;-70
2022/01/18 01:03:20;;;;;;;;;;;-0.20;99.90;;;;;;6233006;23;19900;-70
2022/01/18 01:05:45;;;;;;;;;;;-0.20;99.90;;;;;;6231789;23;19907;-70
2022/01/18 01:08:11;;;;;;;;;;;-0.10;99.90;;;;;;6231713;23;19907;-70
2022/01/18 01:10:37;;;;;;;;;;;-0.10;99.90;;;;;;6232674;23;19903;-69
2022/01/18 01:13:02;;;;;;;;;;;-0.10;99.90;;;;;;6231890;23;19956;-70
2022/01/18 01:15:31;;;;;;;;;;;0.00;99.90;;;;;;6234953;23;19900;-70
2022/01/18 01:34:40;;;;;;;;;;;-0.10;99.90;;;;;;6227969;23;19965;-70
2022/01/18 01:43:18;;;;;;;;;;;-0.10;99.90;;;;;;6228842;23;19912;-69
2022/01/18 01:45:05;;;;;;;;;;;0.00;99.90;;;;;;6209474;23;19919;-70
2022/01/18 01:47:36;;;;;;;;;;;0.00;99.90;;;;;;6228561;23;19946;-70
2022/01/18 01:50:03;;;;;;;;;;;0.00;99.90;;;;;;6228088;23;19954;-69
2022/01/18 01:52:28;;;;;;;;;;;0.10;99.90;;;;;;6230072;23;19979;-70
2022/01/18 01:54:54;;;;;;;;;;;0.10;99.90;;;;;;6230252;23;19904;-70
2022/01/18 01:57:21;;;;;;;;;;;0.20;99.90;;;;;;6229322;23;19904;-70
2022/01/18 01:59:47;;;;;;;;;;;0.10;99.90;;;;;;6227554;23;19934;-69
2022/01/18 02:02:12;;;;;;;;;;;0.10;99.90;;;;;;6227727;23;19906;-70
2022/01/18 02:04:38;;;;;;;;;;;0.10;99.90;;;;;;6228608;23;19927;-70
2022/01/18 02:07:04;;;;;;;;;;;0.10;99.90;;;;;;6229325;23;19914;-70
2022/01/18 02:09:30;;;;;;;;;;;0.00;99.90;;;;;;6228294;23;19944;-70
2022/01/18 02:11:57;;;;;;;;;;;0.00;99.90;;;;;;6227683;23;19911;-71
2022/01/18 02:14:23;;;;;;;;;;;0.00;99.90;;;;;;6235876;23;19927;-70
2022/01/18 02:22:19;;;;;;;;;;;0.00;99.90;;;;;;6235655;23;19906;-69
2022/01/18 02:24:45;;;;;;;;;;;0.00;99.90;;;;;;6235325;23;19900;-70
2022/01/18 02:27:12;;;;;;;;;;;-0.10;99.90;;;;;;6234416;23;19900;-69
2022/01/18 02:29:37;;;;;;;;;;;-0.10;99.90;;;;;;6233377;23;19903;-70
2022/01/18 02:32:03;;;;;;;;;;;-0.10;99.90;;;;;;6233406;23;19904;-69
2022/01/18 02:34:29;;;;;;;;;;;-0.10;99.90;;;;;;6232133;23;20554;-70
2022/01/18 02:36:57;;;;;;;;;;;-0.10;99.90;;;;;;6232774;23;19935;-71
2022/01/18 02:39:26;;;;;;;;;;;-0.10;99.90;;;;;;6234405;23;19928;-69
2022/01/18 02:41:56;;;;;;;;;;;-0.10;99.90;;;;;;6231515;23;19912;-70
2022/01/18 02:44:22;;;;;;;;;;;-0.20;99.90;;;;;;6233907;23;19934;-70
2022/01/18 02:46:48;;;;;;;;;;;-0.20;99.90;;;;;;6231733;23;19903;-70
2022/01/18 02:49:13;;;;;;;;;;;-0.20;99.90;;;;;;6230516;23;19900;-69
2022/01/18 02:51:39;;;;;;;;;;;-0.20;99.90;;;;;;6230752;23;19904;-69
2022/01/18 02:54:06;;;;;;;;;;;-0.20;99.90;;;;;;6227628;23;19904;-70
2022/01/18 02:56:37;;;;;;;;;;;-0.30;99.90;;;;;;6228934;23;19907;-71
2022/01/18 02:59:16;;;;;;;;;;;-0.30;99.90;;;;;;6228707;23;19888;-70
2022/01/18 03:04:26;;;;;;;;;;;-0.20;99.90;;;;;;6228309;23;19907;-70
2022/01/18 03:06:52;;;;;;;;;;;-0.10;99.90;;;;;;6227811;23;19900;-69
2022/01/18 03:09:17;;;;;;;;;;;-0.20;99.90;;;;;;6228148;23;20308;-69
2022/01/18 03:11:43;;;;;;;;;;;-0.20;99.90;;;;;;6225933;23;19907;-70
2022/01/18 03:14:09;;;;;;;;;;;-0.20;99.90;;;;;;6226187;23;19915;-69
2022/01/18 03:16:34;;;;;;;;;;;-0.20;99.90;;;;;;6227055;23;19900;-70
2022/01/18 03:19:00;;;;;;;;;;;-0.20;99.90;;;;;;6227080;23;19900;-71
2022/01/18 03:21:26;;;;;;;;;;;-0.20;99.90;;;;;;6226983;23;19904;-70
2022/01/18 03:24:10;;;;;;;;;;;-0.10;99.90;;;;;;6230128;23;19900;-69
2022/01/18 03:28:03;;;;;;;;;;;-0.20;99.90;;;;;;6229160;23;19900;-69
2022/01/18 03:29:22;;;;;;;;;;;-0.20;99.90;;;;;;6229835;23;19899;-70
2022/01/18 03:31:48;;;;;;;;;;;-0.20;99.90;;;;;;6230489;23;19911;-70
2022/01/18 03:34:13;;;;;;;;;;;-0.20;99.90;;;;;;6228875;23;19904;-69
2022/01/18 03:36:39;;;;;;;;;;;-0.20;99.90;;;;;;6231397;23;19953;-69
2022/01/18 03:39:05;;;;;;;;;;;-0.20;99.90;;;;;;6230373;23;19943;-69
2022/01/18 03:41:30;;;;;;;;;;;-0.20;99.90;;;;;;6229576;23;19912;-70
2022/01/18 03:43:56;;;;;;;;;;;-0.30;99.90;;;;;;6230937;23;19927;-69
2022/01/18 03:46:24;;;;;;;;;;;-0.30;99.90;;;;;;6229740;23;19899;-70
2022/01/18 03:48:51;;;;;;;;;;;-0.20;99.90;;;;;;6230306;23;20320;-68
2022/01/18 03:51:16;;;;;;;;;;;-0.20;99.90;;;;;;6230680;23;19914;-69
2022/01/18 03:53:42;;;;;;;;;;;-0.20;99.90;;;;;;6230243;23;19908;-70
2022/01/18 03:56:08;;;;;;;;;;;-0.30;99.90;;;;;;6230638;23;19899;-70
2022/01/18 03:58:34;;;;;;;;;;;-0.10;99.90;;;;;;6231968;23;19910;-69
2022/01/18 04:01:00;;;;;;;;;;;-0.20;99.90;;;;;;6229380;23;19904;-71
2022/01/18 04:03:26;;;;;;;;;;;-0.10;99.90;;;;;;6231250;23;19916;-70
2022/01/18 04:05:52;;;;;;;;;;;-0.10;99.90;;;;;;6230666;23;19918;-70
2022/01/18 04:08:19;;;;;;;;;;;-0.20;99.90;;;;;;6229186;23;19904;-69
2022/01/18 04:10:45;;;;;;;;;;;-0.20;99.90;;;;;;6229785;23;20156;-70
2022/01/18 04:13:10;;;;;;;;;;;-0.20;99.90;;;;;;6229236;23;19983;-70
2022/01/18 04:15:36;;;;;;;;;;;-0.30;99.90;;;;;;6230703;23;19899;-70
2022/01/18 04:18:21;;;;;;;;;;;-0.20;99.90;;;;;;6231105;23;19899;-69
2022/01/18 04:28:54;;;;;;;;;;;-0.20;99.90;;;;;;6230182;23;19922;-70
2022/01/18 04:31:20;;;;;;;;;;;-0.30;99.90;;;;;;6230571;23;19914;-70
2022/01/18 04:33:46;;;;;;;;;;;-0.20;99.90;;;;;;6228563;23;19904;-69
2022/01/18 04:36:12;;;;;;;;;;;-0.30;99.90;;;;;;6229453;23;19951;-70
2022/01/18 04:38:37;;;;;;;;;;;-0.40;99.90;;;;;;6229648;23;19899;-70
2022/01/18 04:41:10;;;;;;;;;;;-0.50;99.90;;;;;;6229830;23;19944;-70
2022/01/18 04:49:02;;;;;;;;;;;-0.20;99.90;;;;;;6230147;23;19907;-69
2022/01/18 04:51:28;;;;;;;;;;;0.00;99.90;;;;;;6229988;23;19919;-69
2022/01/18 04:53:56;;;;;;;;;;;0.10;99.90;;;;;;6228828;23;19904;-69
2022/01/18 04:59:05;;;;;;;;;;;0.00;99.90;;;;;;6230682;23;19911;-70
2022/01/18 05:01:31;;;;;;;;;;;0.10;99.90;;;;;;6227233;23;19982;-69
2022/01/18 05:03:57;;;;;;;;;;;0.00;99.90;;;;;;6229110;23;19952;-70
2022/01/18 05:06:22;;;;;;;;;;;0.00;99.90;;;;;;6228593;23;20275;-70
2022/01/18 05:08:48;;;;;;;;;;;-0.10;99.90;;;;;;6229290;23;19904;-70
2022/01/18 05:11:16;;;;;;;;;;;-0.10;99.90;;;;;;6229670;23;19903;-70
2022/01/18 05:14:14;;;;;;;;;;;-0.20;99.90;;;;;;6229038;23;19911;-69
2022/01/18 05:22:58;;;;;;;;;;;0.10;99.90;;;;;;6232765;23;19911;-68
2022/01/18 05:24:29;;;;;;;;;;;0.00;99.90;;;;;;6234498;23;19904;-70
2022/01/18 05:26:55;;;;;;;;;;;0.00;99.90;;;;;;6233471;23;19888;-68
2022/01/18 05:29:21;;;;;;;;;;;0.10;99.90;;;;;;6234373;23;19903;-69
2022/01/18 05:31:47;;;;;;;;;;;0.10;99.90;;;;;;6233995;23;19985;-69
2022/01/18 05:34:14;;;;;;;;;;;0.10;99.90;;;;;;6232622;23;19912;-70
2022/01/18 05:36:40;;;;;;;;;;;0.10;99.90;;;;;;6233960;23;19964;-70
2022/01/18 05:39:09;;;;;;;;;;;0.00;99.90;;;;;;6233035;23;20007;-70
2022/01/18 05:41:34;;;;;;;;;;;0.00;99.90;;;;;;6230679;23;19995;-70
2022/01/18 05:44:00;;;;;;;;;;;-0.10;99.90;;;;;;6230835;23;19903;-70
2022/01/18 05:46:25;;;;;;;;;;;-0.10;99.90;;;;;;6229322;23;19900;-70
2022/01/18 05:48:51;;;;;;;;;;;-0.10;99.90;;;;;;6231956;23;19900;-71
2022/01/18 05:51:17;;;;;;;;;;;-0.10;99.90;;;;;;6231653;23;19903;-69
2022/01/18 05:53:42;;;;;;;;;;;-0.10;99.90;;;;;;6229416;23;19904;-69
2022/01/18 05:56:11;;;;;;;;;;;-0.20;99.90;;;;;;6230528;23;19928;-70
2022/01/18 05:58:45;;;;;;;;;;;-0.20;99.90;;;;;;6228929;23;19900;-70
2022/01/18 06:01:13;;;;;;;;;;;-0.10;99.90;;;;;;6229851;23;19900;-70
2022/01/18 06:04:06;;;;;;;;;;;0.00;99.90;;;;;;6231281;23;19900;-70
2022/01/18 06:06:53;;;;;;;;;;;0.00;99.90;;;;;;6231937;23;20206;-70
2022/01/18 06:09:19;;;;;;;;;;;0.00;99.90;;;;;;6234377;23;19900;-69
2022/01/18 06:11:45;;;;;;;;;;;-0.10;99.90;;;;;;6234006;23;20002;-70
2022/01/18 06:14:10;;;;;;;;;;;-0.10;99.90;;;;;;6233060;23;19983;-70
2022/01/18 06:16:38;;;;;;;;;;;-0.10;99.90;;;;;;6235281;23;19903;-70
2022/01/18 06:19:04;;;;;;;;;;;-0.20;99.90;;;;;;6234179;23;19899;-69
2022/01/18 06:21:29;;;;;;;;;;;-0.20;99.90;;;;;;6232571;23;20346;-69
2022/01/18 06:23:55;;;;;;;;;;;-0.20;99.90;;;;;;6234632;23;19899;-68
2022/01/18 06:26:20;;;;;;;;;;;-0.20;99.90;;;;;;6234153;23;19927;-69
2022/01/18 06:28:46;;;;;;;;;;;-0.20;99.90;;;;;;6231356;23;19907;-70
2022/01/18 06:31:15;;;;;;;;;;;-0.20;99.90;;;;;;6229487;23;19927;-69
2022/01/18 06:33:40;;;;;;;;;;;-0.20;99.90;;;;;;6227928;23;20311;-70
2022/01/18 06:36:06;;;;;;;;;;;-0.30;99.90;;;;;;6230337;23;19899;-70
2022/01/18 06:38:31;;;;;;;;;;;-0.30;99.90;;;;;;6229152;23;19946;-70
2022/01/18 06:40:57;;;;;;;;;;;-0.30;99.90;;;;;;6227950;23;19975;-69
2022/01/18 06:43:22;;;;;;;;;;;-0.30;99.90;;;;;;6229949;23;20255;-69
2022/01/18 06:45:48;;;;;;;;;;;-0.40;99.90;;;;;;6230861;23;19904;-69
2022/01/18 06:48:13;;;;;;;;;;;-0.40;99.90;;;;;;6230235;23;19923;-70
2022/01/18 06:50:39;;;;;;;;;;;-0.40;99.90;;;;;;6230475;23;20232;-69
2022/01/18 06:53:05;;;;;;;;;;;-0.30;99.90;;;;;;6228573;23;19947;-70
2022/01/18 06:55:31;;;;;;;;;;;-0.30;99.90;;;;;;6230288;23;19900;-69
2022/01/18 06:57:57;;;;;;;;;;;-0.30;99.90;;;;;;6231065;23;19957;-69
2022/01/18 07:00:22;;;;;;;;;;;-0.30;99.90;;;;;;6230313;23;19911;-70
2022/01/18 07:02:48;;;;;;;;;;;-0.40;99.90;;;;;;6231161;23;19931;-70
2022/01/18 07:05:14;;;;;;;;;;;-0.40;99.90;;;;;;6231470;23;19907;-69
2022/01/18 07:07:40;;;;;;;;;;;-0.40;99.90;;;;;;6229156;23;19900;-69
2022/01/18 07:10:06;;;;;;;;;;;-0.50;99.90;;;;;;6230493;23;19900;-71
2022/01/18 07:12:34;;;;;;;;;;;-0.50;99.90;;;;;;6230706;23;19903;-70
2022/01/18 07:15:00;;;;;;;;;;;-0.50;99.90;;;;;;6228382;23;19907;-70
2022/01/18 07:17:26;;;;;;;;;;;-0.50;99.90;;;;;;6230611;23;20232;-70
2022/01/18 07:19:51;;;;;;;;;;;-0.50;99.90;;;;;;6230118;23;19900;-70
2022/01/18 07:22:17;;;;;;;;;;;-0.50;99.90;;;;;;6229746;23;19906;-70
2022/01/18 07:24:47;;;;;;;;;;;-0.40;99.90;;;;;;6232169;23;19943;-70
2022/01/18 07:27:14;;;;;;;;;;;-0.30;99.90;;;;;;6231482;23;19907;-70
2022/01/18 07:29:43;;;;;;;;;;;-0.40;99.90;;;;;;6231344;23;20331;-70
2022/01/18 07:32:11;;;;;;;;;;;-0.40;99.90;;;;;;6232924;23;19904;-70
2022/01/18 07:34:41;;;;;;;;;;;-0.40;99.90;;;;;;6233630;23;19904;-72
2022/01/18 07:37:09;;;;;;;;;;;-0.50;99.90;;;;;;6229762;23;19903;-70
2022/01/18 07:39:34;;;;;;;;;;;-0.60;99.90;;;;;;6228424;23;19904;-69
2022/01/18 07:42:00;;;;;;;;;;;-0.40;99.90;;;;;;6215882;23;20360;-72
2022/01/18 07:44:25;;;;;;;;;;;-0.30;99.90;;;;;;6218726;23;20232;-71
2022/01/18 07:46:51;;;;;;;;;;;-0.30;99.90;;;;;;6215167;23;20205;-72
2022/01/18 07:49:17;;;;;;;;;;;-0.40;99.90;;;;;;6216690;23;19982;-75
2022/01/18 07:51:42;;;;;;;;;;;-0.40;99.90;;;;;;6219489;23;19986;-76
2022/01/18 07:54:08;;;;;;;;;;;-0.20;99.90;;;;;;6212390;23;20149;-71
2022/01/18 07:56:34;;;;;;;;;;;-0.20;99.90;;;;;;6216624;23;19906;-72
2022/01/18 07:58:59;;;;;;;;;;;-0.10;99.90;;;;;;6214445;23;20232;-72
2022/01/18 08:01:25;;;;;;;;;;;-0.20;99.90;;;;;;6213569;23;19907;-72
2022/01/18 08:03:50;;;;;;;;;;;-0.20;99.90;;;;;;6216657;23;19946;-73
2022/01/18 08:06:16;;;;;;;;;;;-0.10;99.90;;;;;;6212079;23;20324;-70
2022/01/18 08:08:42;;;;;;;;;;;-0.30;99.90;;;;;;6214062;23;19900;-71
2022/01/18 08:11:08;;;;;;;;;;;-0.20;99.90;;;;;;6213009;23;19904;-72
2022/01/18 08:13:39;;;;;;;;;;;-0.10;99.90;;;;;;6212601;23;19970;-72
2022/01/18 08:16:22;;;;;;;;;;;0.20;99.90;;;;;;6213544;23;19938;-71
2022/01/18 08:18:48;;;;;;;;;;;0.30;99.90;;;;;;6213055;23;19958;-72
2022/01/18 08:21:13;;;;;;;;;;;0.40;99.90;;;;;;6211489;23;19900;-73
2022/01/18 08:23:39;;;;;;;;;;;0.50;99.90;;;;;;6213186;23;19900;-72
2022/01/18 08:26:04;;;;;;;;;;;0.60;99.90;;;;;;6212909;23;19904;-71
2022/01/18 08:28:30;;;;;;;;;;;0.70;99.90;;;;;;6211770;23;19900;-72
2022/01/18 08:30:55;;;;;;;;;;;0.60;99.90;;;;;;6212904;23;19911;-72
2022/01/18 08:33:21;;;;;;;;;;;0.50;99.90;;;;;;6212430;23;20300;-72
2022/01/18 08:35:47;;;;;;;;;;;0.60;99.90;;;;;;6212671;23;20240;-73
2022/01/18 08:38:12;;;;;;;;;;;0.70;99.90;;;;;;6212845;23;20229;-72
2022/01/18 08:40:38;;;;;;;;;;;0.50;99.90;;;;;;6211068;23;19907;-72
2022/01/18 08:43:03;;;;;;;;;;;0.50;99.90;;;;;;6213892;23;19919;-72
2022/01/18 08:45:29;;;;;;;;;;;0.40;99.90;;;;;;6211243;23;19900;-72
2022/01/18 08:47:54;;;;;;;;;;;0.40;99.90;;;;;;6210664;23;20217;-72
2022/01/18 08:50:20;;;;;;;;;;;0.50;99.90;;;;;;6210917;23;20269;-72
2022/01/18 08:52:50;;;;;;;;;;;0.60;99.90;;;;;;6212177;23;20304;-71
2022/01/18 08:55:16;;;;;;;;;;;0.70;99.90;;;;;;6209296;23;19977;-72
2022/01/18 08:57:41;;;;;;;;;;;0.70;99.90;;;;;;6213459;23;19903;-72
2022/01/18 09:00:09;;;;;;;;;;;0.80;99.90;;;;;;6211247;23;19907;-72
2022/01/18 09:02:34;;;;;;;;;;;0.80;99.90;;;;;;6214084;23;19907;-70
2022/01/18 09:05:00;;;;;;;;;;;0.90;99.90;;;;;;6213438;23;19900;-71
2022/01/18 09:07:26;;;;;;;;;;;1.00;99.90;;;;;;6211908;23;19900;-71
2022/01/18 09:10:02;;;;;;;;;;;1.00;99.90;;;;;;6213271;23;19995;-71
2022/01/18 09:12:28;;;;;;;;;;;1.00;99.90;;;;;;6214524;23;19904;-71
2022/01/18 09:14:53;;;;;;;;;;;1.10;99.90;;;;;;6211511;23;19910;-71
2022/01/18 09:17:19;;;;;;;;;;;1.10;99.90;;;;;;6214607;23;20258;-70
2022/01/18 09:19:44;;;;;;;;;;;1.10;99.90;;;;;;6214000;23;19904;-71
2022/01/18 09:22:10;;;;;;;;;;;1.20;99.90;;;;;;6213727;23;19900;-70
2022/01/18 09:24:35;;;;;;;;;;;1.20;99.90;;;;;;6214142;23;19900;-70
2022/01/18 09:27:01;;;;;;;;;;;1.30;99.90;;;;;;6213389;23;20209;-69
2022/01/18 09:29:27;;;;;;;;;;;1.40;99.90;;;;;;6213605;23;20217;-69
2022/01/18 09:31:53;;;;;;;;;;;1.50;99.90;;;;;;6212767;23;19992;-71
2022/01/18 09:34:18;;;;;;;;;;;1.50;99.90;;;;;;6212745;23;19903;-70
2022/01/18 09:36:44;;;;;;;;;;;1.60;99.90;;;;;;6213067;23;19899;-71
2022/01/18 09:39:09;;;;;;;;;;;1.60;99.90;;;;;;6214737;23;20331;-70
2022/01/18 09:41:39;;;;;;;;;;;1.60;99.90;;;;;;6213612;23;19912;-70
2022/01/18 09:44:06;;;;;;;;;;;1.80;99.90;;;;;;6215502;23;19947;-71
2022/01/18 09:46:31;;;;;;;;;;;1.90;99.90;;;;;;6214540;23;20305;-71
2022/01/18 09:48:57;;;;;;;;;;;2.00;99.90;;;;;;6213217;23;19982;-70
2022/01/18 09:51:23;;;;;;;;;;;1.80;99.90;;;;;;6213292;23;19910;-70
2022/01/18 09:53:49;;;;;;;;;;;1.80;99.90;;;;;;6213301;23;19953;-70
2022/01/18 09:56:15;;;;;;;;;;;1.90;99.90;;;;;;6215363;23;19945;-71
2022/01/18 09:58:41;;;;;;;;;;;1.90;99.90;;;;;;6214892;23;19900;-70
2022/01/18 10:01:07;;;;;;;;;;;1.80;99.90;;;;;;6211611;23;19979;-71
2022/01/18 10:03:34;;;;;;;;;;;2.00;99.90;;;;;;6210730;23;19920;-71
2022/01/18 10:06:01;;;;;;;;;;;2.00;99.90;;;;;;6215054;23;19900;-71
2022/01/18 10:08:28;;;;;;;;;;;2.10;99.90;;;;;;6212748;23;19904;-71
2022/01/18 10:11:02;;;;;;;;;;;2.20;99.90;;;;;;6210481;23;19931;-71
2022/01/18 10:13:28;;;;;;;;;;;2.30;99.90;;;;;;6213816;23;19903;-73
2022/01/18 10:16:05;;;;;;;;;;;2.50;99.90;;;;;;6217344;23;19953;-72
2022/01/18 10:18:32;;;;;;;;;;;2.60;99.90;;;;;;6217698;23;20213;-71
2022/01/18 10:20:59;;;;;;;;;;;2.60;99.90;;;;;;6215784;23;19950;-73
2022/01/18 10:23:24;;;;;;;;;;;2.50;99.90;;;;;;6213014;23;19904;-72
2022/01/18 10:25:51;;;;;;;;;;;2.60;99.90;;;;;;6214978;23;19975;-71
2022/01/18 10:28:27;;;;;;;;;;;2.70;99.90;;;;;;6213016;23;20258;-72
2022/01/18 10:30:52;;;;;;;;;;;2.70;99.90;;;;;;6212759;23;20319;-71
2022/01/18 10:33:22;;;;;;;;;;;2.90;99.90;;;;;;6209282;23;19904;-72
2022/01/18 10:36:11;;;;;;;;;;;2.90;99.90;;;;;;6213915;23;19908;-71
2022/01/18 10:38:48;;;;;;;;;;;3.00;99.90;;;;;;6214970;23;19906;-72
2022/01/18 10:41:23;;;;;;;;;;;2.90;99.90;;;;;;6212518;23;19944;-72
2022/01/18 10:44:01;;;;;;;;;;;3.10;99.90;;;;;;6212612;23;19904;-72
2022/01/18 10:46:32;;;;;;;;;;;3.10;99.90;;;;;;6208931;23;19903;-72
2022/01/18 10:48:57;;;;;;;;;;;3.20;99.90;;;;;;6211720;23;19990;-72
2022/01/18 10:51:29;;;;;;;;;;;3.30;99.90;;;;;;6214042;23;19938;-72
2022/01/18 10:53:56;;;;;;;;;;;3.30;99.90;;;;;;6211756;23;19918;-72
2022/01/18 10:56:22;;;;;;;;;;;3.50;99.90;;;;;;6212719;23;19984;-72
2022/01/18 10:58:48;;;;;;;;;;;3.50;99.90;;;;;;6212061;23;20158;-72
2022/01/18 11:01:17;;;;;;;;;;;3.50;99.90;;;;;;6211798;23;19919;-72
2022/01/18 11:04:01;;;;;;;;;;;3.60;99.90;;;;;;6213120;23;19900;-72
2022/01/18 11:06:27;;;;;;;;;;;3.70;99.90;;;;;;6211338;23;20210;-73
2022/01/18 11:08:52;;;;;;;;;;;3.70;99.90;;;;;;6214767;23;19907;-71
2022/01/18 11:11:25;;;;;;;;;;;3.80;99.90;;;;;;6214532;23;19910;-72
2022/01/18 11:13:50;;;;;;;;;;;3.80;99.90;;;;;;6213034;23;19946;-73
2022/01/18 11:16:25;;;;;;;;;;;3.80;99.90;;;;;;6210521;23;20193;-72
2022/01/18 11:18:51;;;;;;;;;;;4.00;99.90;;;;;;6215132;23;19907;-72
2022/01/18 11:21:19;;;;;;;;;;;4.10;99.90;;;;;;6212294;23;19943;-70
2022/01/18 11:23:45;;;;;;;;;;;4.20;99.90;;;;;;6213056;23;19907;-73
2022/01/18 11:26:10;;;;;;;;;;;4.50;99.90;;;;;;6212769;23;19900;-72
2022/01/18 11:28:37;;;;;;;;;;;4.50;99.90;;;;;;6211724;23;19906;-71
2022/01/18 11:31:02;;;;;;;;;;;4.60;99.90;;;;;;6215135;23;19903;-72
2022/01/18 11:33:30;;;;;;;;;;;4.80;99.90;;;;;;6210879;23;19950;-71
2022/01/18 11:35:57;;;;;;;;;;;4.80;99.90;;;;;;6214043;23;19954;-71
2022/01/18 11:38:23;;;;;;;;;;;4.90;99.90;;;;;;6214095;23;19969;-71
2022/01/18 11:40:50;;;;;;;;;;;5.00;99.90;;;;;;6212279;23;20300;-71
2022/01/18 11:43:35;;;;;;;;;;;5.00;99.90;;;;;;6213504;23;19915;-72
2022/01/18 11:46:18;;;;;;;;;;;5.10;99.90;;;;;;6213449;23;19906;-72
2022/01/18 11:48:44;;;;;;;;;;;5.10;99.90;;;;;;6212451;23;19900;-71
2022/01/18 11:51:16;;;;;;;;;;;5.00;99.90;;;;;;6212445;23;19904;-72
2022/01/18 11:53:45;;;;;;;;;;;5.20;99.90;;;;;;6210364;23;19934;-72
2022/01/18 11:56:13;;;;;;;;;;;5.40;99.90;;;;;;6212731;23;19904;-71
2022/01/18 11:58:39;;;;;;;;;;;5.50;99.90;;;;;;6210796;23;20289;-72
2022/01/18 12:01:04;;;;;;;;;;;5.40;99.90;;;;;;6211816;23;19922;-73
2022/01/18 12:03:31;;;;;;;;;;;5.50;99.90;;;;;;6212359;23;19904;-72
2022/01/18 12:06:01;;;;;;;;;;;5.40;99.90;;;;;;6213429;23;19907;-72
2022/01/18 12:08:33;;;;;;;;;;;5.40;99.90;;;;;;6209872;23;19899;-72
2022/01/18 12:10:58;;;;;;;;;;;5.30;99.90;;;;;;6211888;23;19906;-72
2022/01/18 12:13:25;;;;;;;;;;;5.40;99.90;;;;;;6211985;23;19903;-73
2022/01/18 12:15:56;;;;;;;;;;;5.50;99.90;;;;;;6213519;23;20334;-72
2022/01/18 12:18:26;;;;;;;;;;;5.50;99.90;;;;;;6212368;23;20244;-72
2022/01/18 12:20:53;;;;;;;;;;;5.60;99.90;;;;;;6211559;23;19900;-72
2022/01/18 12:23:20;;;;;;;;;;;5.60;99.90;;;;;;6214037;23;19974;-73
2022/01/18 12:34:25;;;;;;;;;;;5.50;99.90;;;;;;6215418;23;19908;-73
2022/01/18 12:36:54;;;;;;;;;;;5.40;99.90;;;;;;6215913;23;19900;-73
2022/01/18 12:39:20;;;;;;;;;;;5.40;99.90;;;;;;6213219;23;19927;-72
2022/01/18 12:41:48;;;;;;;;;;;5.50;99.90;;;;;;6211700;23;19923;-72
2022/01/18 12:44:24;;;;;;;;;;;5.50;99.90;;;;;;6215501;23;19911;-72
2022/01/18 12:46:53;;;;;;;;;;;5.60;99.90;;;;;;6213129;23;19962;-73
2022/01/18 12:49:19;;;;;;;;;;;5.60;99.90;;;;;;6210364;23;19900;-72
2022/01/18 12:51:45;;;;;;;;;;;5.70;99.90;;;;;;6212331;23;19910;-72
2022/01/18 12:54:10;;;;;;;;;;;5.70;99.90;;;;;;6209693;23;19967;-73
2022/01/18 12:56:36;;;;;;;;;;;5.90;99.90;;;;;;6211356;23;19900;-71
2022/01/18 12:59:04;;;;;;;;;;;6.00;99.90;;;;;;6213085;23;19987;-72
2022/01/18 13:01:31;;;;;;;;;;;6.00;99.90;;;;;;6208338;23;19908;-72
2022/01/18 13:03:57;;;;;;;;;;;6.10;99.90;;;;;;6212182;23;19900;-72
2022/01/18 13:06:33;;;;;;;;;;;6.30;99.90;;;;;;6210965;23;19911;-71
2022/01/18 13:09:00;;;;;;;;;;;6.50;99.90;;;;;;6212162;23;19910;-72
2022/01/18 13:11:27;;;;;;;;;;;6.60;99.90;;;;;;6212604;23;19986;-71
2022/01/18 13:14:00;;;;;;;;;;;6.70;99.90;;;;;;6211912;23;19907;-72
2022/01/18 13:27:02;;;;;;;;;;;6.90;99.90;;;;;;6214048;23;19935;-72
2022/01/18 13:29:28;;;;;;;;;;;7.00;99.90;;;;;;6216690;23;19911;-71
2022/01/18 13:32:24;;;;;;;;;;;7.10;99.90;;;;;;6215552;23;20316;-72
2022/01/18 13:34:51;;;;;;;;;;;7.30;99.90;;;;;;6214858;23;19908;-72
2022/01/18 13:37:18;;;;;;;;;;;7.30;99.90;;;;;;6214497;23;20300;-71
2022/01/18 13:39:52;;;;;;;;;;;7.40;99.90;;;;;;6214530;23;19965;-71
2022/01/18 13:42:19;;;;;;;;;;;7.60;99.90;;;;;;6214165;23;19987;-72
2022/01/18 13:45:03;;;;;;;;;;;7.80;99.90;;;;;;6219738;23;19973;-70
2022/01/18 13:47:36;;;;;;;;;;;8.00;99.90;;;;;;6216127;23;20185;-70
2022/01/18 13:50:03;;;;;;;;;;;8.20;99.90;;;;;;6217648;23;19920;-70
2022/01/18 13:52:29;;;;;;;;;;;8.60;99.90;;;;;;6218526;23;20025;-70
2022/01/18 13:54:55;;;;;;;;;;;8.80;99.90;;;;;;6216202;23;20288;-72
2022/01/18 13:57:21;;;;;;;;;;;8.70;99.90;;;;;;6214727;23;19904;-72
2022/01/18 13:59:48;;;;;;;;;;;8.60;99.90;;;;;;6213015;23;19912;-72
2022/01/18 14:02:18;;;;;;;;;;;8.70;99.90;;;;;;6214916;23;19923;-73
2022/01/18 14:04:45;;;;;;;;;;;8.50;99.90;;;;;;6214601;23;20324;-72
2022/01/18 14:07:11;;;;;;;;;;;8.50;99.90;;;;;;6214644;23;19939;-72
2022/01/18 14:09:37;;;;;;;;;;;8.60;99.90;;;;;;6216724;23;19899;-73
2022/01/18 14:12:02;;;;;;;;;;;8.70;99.90;;;;;;6217397;23;19912;-71
2022/01/18 14:14:29;;;;;;;;;;;8.40;99.90;;;;;;6214648;23;19955;-71
2022/01/18 14:16:55;;;;;;;;;;;8.40;99.90;;;;;;6214457;23;19900;-71
2022/01/18 14:19:28;;;;;;;;;;;8.20;99.90;;;;;;6215219;23;20027;-71
2022/01/18 14:21:55;;;;;;;;;;;8.00;99.90;;;;;;6213869;23;19904;-72
2022/01/18 14:24:22;;;;;;;;;;;8.00;99.90;;;;;;6214816;23;19904;-72
2022/01/18 14:26:54;;;;;;;;;;;7.90;99.90;;;;;;6214654;23;20279;-72
2022/01/18 14:29:20;;;;;;;;;;;7.90;99.90;;;;;;6213128;23;19954;-72
2022/01/18 14:32:18;;;;;;;;;;;7.90;99.90;;;;;;6210774;23;19963;-71
2022/01/18 14:34:47;;;;;;;;;;;7.90;99.90;;;;;;6161398;23;19931;-71
2022/01/18 14:37:13;;;;;;;;;;;7.80;99.90;;;;;;6214011;23;20009;-71
2022/01/18 14:39:52;;;;;;;;;;;7.90;99.90;;;;;;6213637;23;19900;-72
2022/01/18 14:42:18;;;;;;;;;;;7.90;99.90;;;;;;6214277;23;20330;-72
2022/01/18 14:47:25;;;;;;;;;;;7.80;99.90;;;;;;6213502;23;19911;-71
2022/01/18 14:49:51;;;;;;;;;;;7.80;99.90;;;;;;6215210;23;19915;-71
2022/01/18 14:52:17;;;;;;;;;;;7.80;99.90;;;;;;6214003;23;19908;-73
2022/01/18 14:54:42;;;;;;;;;;;7.90;99.90;;;;;;6212563;23;19900;-72
2022/01/18 14:57:09;;;;;;;;;;;8.00;99.90;;;;;;6215141;23;20236;-71
2022/01/18 14:59:34;;;;;;;;;;;8.10;99.90;;;;;;6213544;23;20209;-69
2022/01/18 15:02:00;;;;;;;;;;;8.10;99.90;;;;;;6212189;23;19906;-71
2022/01/18 15:04:25;;;;;;;;;;;8.00;99.90;;;;;;6213927;23;19900;-72
2022/01/18 15:06:51;;;;;;;;;;;7.90;99.90;;;;;;6212821;23;19931;-72
2022/01/18 15:09:17;;;;;;;;;;;7.90;99.90;;;;;;6214268;23;19986;-71
2022/01/18 15:11:43;;;;;;;;;;;7.90;99.90;;;;;;6214283;23;19908;-73
2022/01/18 15:14:08;;;;;;;;;;;7.90;99.90;;;;;;6213741;23;20205;-72
2022/01/18 15:16:34;;;;;;;;;;;7.90;99.90;;;;;;6214588;23;20300;-71
2022/01/18 15:19:00;;;;;;;;;;;8.00;99.90;;;;;;6214477;23;19975;-71
2022/01/18 15:21:25;;;;;;;;;;;8.10;99.90;;;;;;6211346;23;19946;-71
2022/01/18 15:23:51;;;;;;;;;;;8.00;99.90;;;;;;6214451;23;19904;-72
2022/01/18 15:26:17;;;;;;;;;;;7.90;99.90;;;;;;6211918;23;19900;-70
2022/01/18 15:28:42;;;;;;;;;;;7.90;99.90;;;;;;6214509;23;19900;-71
2022/01/18 15:31:08;;;;;;;;;;;7.80;99.90;;;;;;6214499;23;19912;-72
2022/01/18 15:33:34;;;;;;;;;;;7.80;99.90;;;;;;6212897;23;20289;-71
2022/01/18 15:36:00;;;;;;;;;;;7.90;99.90;;;;;;6213939;23;19946;-72
2022/01/18 15:38:25;;;;;;;;;;;7.90;99.90;;;;;;6214276;23;19911;-71
2022/01/18 15:40:51;;;;;;;;;;;7.80;99.90;;;;;;6213396;23;19957;-70
2022/01/18 15:43:18;;;;;;;;;;;7.80;99.90;;;;;;6214477;23;19918;-72
2022/01/18 15:45:46;;;;;;;;;;;7.80;99.90;;;;;;6208265;23;19903;-72
2022/01/18 15:48:12;;;;;;;;;;;7.70;99.90;;;;;;6209308;23;19904;-72
2022/01/18 15:50:37;;;;;;;;;;;7.70;99.90;;;;;;6212211;23;19934;-72
2022/01/18 15:53:03;;;;;;;;;;;7.70;99.90;;;;;;6210658;23;19989;-73